createdAt,value
2022-10-04T00:01:55.349Z,8.58
2022-10-04T00:04:34.053Z,8.67
2022-10-04T00:07:13.864Z,8.58
2022-10-04T00:09:47.173Z,8.68
2022-10-04T00:12:22.078Z,8.69
2022-10-04T00:14:49.932Z,8.75
2022-10-04T00:17:24.926Z,8.73
2022-10-04T00:19:52.926Z,8.68
2022-10-04T00:22:33.068Z,8.70
2022-10-04T00:25:19.539Z,8.70
2022-10-04T00:28:40.757Z,8.71
2022-10-04T00:31:26.330Z,8.79
2022-10-04T00:34:33.661Z,8.77
2022-10-04T00:37:00.784Z,8.70
2022-10-04T00:39:39.417Z,8.66
2022-10-04T00:42:36.803Z,8.73
2022-10-04T00:48:40.718Z,8.58
2022-10-04T00:51:28.526Z,8.66
2022-10-04T00:54:02.050Z,8.68
2022-10-04T00:57:08.074Z,8.70
2022-10-04T00:59:47.817Z,8.68
2022-10-04T01:02:19.342Z,8.71
2022-10-04T01:05:11.417Z,8.57
2022-10-04T01:07:50.331Z,8.51
2022-10-04T01:10:37.218Z,8.56
2022-10-04T01:13:16.532Z,8.59
2022-10-04T01:15:50.948Z,8.61
2022-10-04T01:18:36.067Z,8.45
2022-10-04T01:21:27.601Z,8.48
2022-10-04T01:24:17.848Z,8.49
2022-10-04T01:26:46.012Z,8.55
2022-10-04T01:29:19.825Z,8.52
2022-10-04T01:31:51.492Z,8.57
2022-10-04T01:34:20.995Z,8.41
2022-10-04T01:36:48.925Z,8.39
2022-10-04T01:39:16.844Z,8.39
2022-10-04T01:42:07.200Z,8.43
2022-10-04T01:44:41.123Z,8.44
2022-10-04T01:47:22.411Z,8.43
2022-10-04T01:49:50.402Z,8.44
2022-10-04T01:52:56.308Z,8.44
2022-10-04T01:55:29.966Z,8.46
2022-10-04T01:58:04.042Z,8.53
2022-10-04T02:00:31.649Z,8.48
2022-10-04T02:03:03.099Z,8.44
2022-10-04T02:05:40.714Z,8.44
2022-10-04T02:08:12.519Z,8.43
2022-10-04T02:10:43.463Z,8.45
2022-10-04T02:13:21.721Z,8.49
2022-10-04T02:15:50.141Z,8.52
2022-10-04T02:18:21.844Z,8.52
2022-10-04T02:20:50.489Z,8.55
2022-10-04T02:23:19.425Z,8.47
2022-10-04T02:25:46.667Z,8.38
2022-10-04T02:28:15.605Z,8.42
2022-10-04T02:31:06.523Z,8.57
2022-10-04T02:33:33.575Z,8.48
2022-10-04T02:36:00.711Z,8.46
2022-10-04T02:38:32.337Z,8.43
2022-10-04T02:41:07.344Z,8.41
2022-10-04T02:43:43.425Z,8.35
2022-10-04T02:46:18.789Z,8.41
2022-10-04T02:48:48.926Z,8.47
2022-10-04T02:51:31.504Z,8.50
2022-10-04T02:54:10.737Z,8.45
2022-10-04T02:56:38.041Z,8.50
2022-10-04T02:59:06.436Z,8.54
2022-10-04T03:02:28.646Z,8.54
2022-10-04T03:05:00.647Z,8.56
2022-10-04T03:07:27.521Z,8.55
2022-10-04T03:09:54.360Z,8.52
2022-10-04T03:12:22.389Z,8.51
2022-10-04T03:14:49.569Z,8.49
2022-10-04T03:17:16.777Z,8.48
2022-10-04T03:19:44.300Z,8.45
2022-10-04T03:22:12.484Z,8.40
2022-10-04T03:24:47.443Z,8.36
2022-10-04T03:27:23.075Z,8.41
2022-10-04T03:29:52.684Z,8.35
2022-10-04T03:32:21.795Z,8.46
2022-10-04T03:34:53.882Z,8.38
2022-10-04T03:37:21.802Z,8.35
2022-10-04T03:39:50.465Z,8.42
2022-10-04T03:42:29.239Z,8.35
2022-10-04T03:45:04.861Z,8.34
2022-10-04T03:47:35.725Z,8.35
2022-10-04T03:50:13.711Z,8.32
2022-10-04T03:53:04.730Z,8.28
2022-10-04T03:55:37.117Z,8.27
2022-10-04T03:58:04.308Z,8.34
2022-10-04T04:00:31.895Z,8.22
2022-10-04T04:03:04.323Z,8.24
2022-10-04T04:06:03.997Z,8.36
2022-10-04T04:08:33.933Z,8.19
2022-10-04T04:11:03.679Z,7.99
2022-10-04T04:14:15.680Z,8.14
2022-10-04T04:16:42.591Z,8.27
2022-10-04T04:19:14.354Z,8.13
2022-10-04T04:21:41.933Z,8.21
2022-10-04T04:24:23.294Z,8.27
2022-10-04T04:26:57.121Z,8.29
2022-10-04T04:29:30.586Z,8.33
2022-10-04T04:32:04.714Z,8.32
2022-10-04T04:34:33.335Z,8.33
2022-10-04T04:37:04.617Z,8.30
2022-10-04T04:39:37.608Z,8.35
2022-10-04T04:42:27.732Z,8.25
2022-10-04T04:45:23.033Z,8.28
2022-10-04T04:47:52.641Z,8.29
2022-10-04T04:50:23.141Z,8.32
2022-10-04T04:52:56.244Z,8.42
2022-10-04T04:55:26.759Z,8.31
2022-10-04T04:57:56.342Z,8.29
2022-10-04T05:00:29.727Z,8.25
2022-10-04T05:02:59.185Z,8.24
2022-10-04T05:05:30.821Z,8.23
2022-10-04T05:08:14.523Z,8.25
2022-10-04T05:10:45.376Z,8.28
2022-10-04T05:13:13.262Z,8.36
2022-10-04T05:15:42.135Z,8.37
2022-10-04T05:18:30.164Z,8.43
2022-10-04T05:21:15.520Z,8.22
2022-10-04T05:23:42.872Z,8.01
2022-10-04T05:26:14.629Z,8.06
2022-10-04T05:28:41.699Z,8.13
2022-10-04T05:31:27.977Z,8.28
2022-10-04T05:33:57.880Z,8.30
2022-10-04T05:36:50.812Z,8.34
2022-10-04T05:39:37.915Z,8.32
2022-10-04T05:42:27.165Z,8.36
2022-10-04T05:44:58.286Z,8.31
2022-10-04T05:47:30.875Z,8.37
2022-10-04T05:49:59.603Z,8.37
2022-10-04T05:52:34.228Z,8.37
2022-10-04T05:55:17.018Z,8.41
2022-10-04T05:58:25.852Z,8.37
2022-10-04T06:01:24.863Z,8.37
2022-10-04T06:04:23.969Z,8.45
2022-10-04T06:07:03.135Z,8.51
2022-10-04T06:09:51.414Z,8.46
2022-10-04T06:12:53.892Z,8.34
2022-10-04T06:15:39.331Z,8.43
2022-10-04T06:18:21.942Z,8.44
2022-10-04T06:21:22.379Z,8.28
2022-10-04T06:24:05.757Z,8.35
2022-10-04T06:26:41.590Z,8.43
2022-10-04T06:29:12.520Z,8.46
2022-10-04T06:32:20.883Z,8.19
2022-10-04T06:35:12.655Z,8.17
2022-10-04T06:38:33.064Z,8.37
2022-10-04T06:41:43.323Z,8.47
2022-10-04T06:44:37.031Z,8.50
2022-10-04T06:47:24.113Z,8.52
2022-10-04T06:50:34.221Z,8.62
2022-10-04T06:53:18.957Z,8.75
2022-10-04T06:56:21.838Z,8.71
2022-10-04T06:58:52.211Z,8.66
2022-10-04T07:01:37.238Z,8.70
2022-10-04T07:04:22.899Z,8.76
2022-10-04T07:07:19.263Z,8.76
2022-10-04T07:09:46.958Z,8.99
2022-10-04T07:12:17.897Z,8.93
2022-10-04T07:14:52.541Z,8.93
2022-10-04T07:17:30.407Z,8.82
2022-10-04T07:19:58.813Z,8.79
2022-10-04T07:22:31.457Z,8.92
2022-10-04T07:25:19.639Z,9.21
2022-10-04T07:28:10.573Z,9.31
2022-10-04T07:30:42.381Z,9.24
2022-10-04T07:33:15.291Z,9.25
2022-10-04T07:35:52.355Z,9.32
2022-10-04T07:38:30.425Z,9.46
2022-10-04T07:41:35.682Z,9.54
2022-10-04T07:44:04.574Z,9.61
2022-10-04T07:47:20.913Z,9.68
2022-10-04T07:49:50.786Z,9.75
2022-10-04T07:52:30.293Z,9.85
2022-10-04T07:55:33.238Z,9.85
2022-10-04T07:58:19.214Z,9.93
2022-10-04T08:01:16.955Z,9.97
2022-10-04T08:03:57.706Z,9.90
2022-10-04T08:06:56.806Z,10.02
2022-10-04T08:09:32.874Z,9.96
2022-10-04T08:12:18.438Z,10.01
2022-10-04T08:15:34.659Z,10.18
2022-10-04T08:18:46.437Z,10.33
2022-10-04T08:21:23.819Z,10.40
2022-10-04T08:24:19.808Z,10.49
2022-10-04T08:26:55.290Z,10.55
2022-10-04T08:29:49.061Z,10.63
2022-10-04T08:32:46.312Z,10.63
2022-10-04T08:35:52.515Z,10.70
2022-10-04T08:38:35.088Z,10.68
2022-10-04T08:41:28.507Z,10.65
2022-10-04T08:44:23.373Z,10.69
2022-10-04T08:47:22.718Z,10.67
2022-10-04T08:50:20.877Z,10.80
2022-10-04T08:53:29.631Z,11.00
2022-10-04T08:56:22.026Z,11.12
2022-10-04T08:59:10.825Z,11.14
2022-10-04T09:02:25.580Z,11.29
2022-10-04T09:05:20.225Z,11.38
2022-10-04T09:07:58.571Z,11.63
2022-10-04T09:11:05.204Z,11.73
2022-10-04T09:13:41.113Z,11.86
2022-10-04T09:17:00.487Z,11.86
2022-10-04T09:20:39.165Z,11.92
2022-10-04T09:23:50.555Z,11.79
2022-10-04T09:26:43.621Z,12.13
2022-10-04T09:29:29.237Z,12.31
2022-10-04T09:32:16.958Z,12.54
2022-10-04T09:35:12.737Z,12.61
2022-10-04T09:38:25.575Z,12.73
2022-10-04T09:41:19.664Z,12.64
2022-10-04T09:44:07.973Z,12.93
2022-10-04T09:46:59.133Z,13.22
2022-10-04T09:49:27.688Z,13.40
2022-10-04T09:52:40.263Z,13.53
2022-10-04T09:55:23.448Z,13.64
2022-10-04T09:58:33.130Z,13.76
2022-10-04T10:01:18.883Z,13.97
2022-10-04T10:04:06.387Z,14.05
2022-10-04T10:06:58.141Z,14.30
2022-10-04T10:10:17.247Z,14.49
2022-10-04T10:17:17.954Z,15.01
2022-10-04T10:20:34.926Z,15.10
2022-10-04T10:23:46.193Z,15.07
2022-10-04T10:26:30.181Z,14.97
2022-10-04T10:29:29.019Z,15.26
2022-10-04T10:32:09.673Z,15.44
2022-10-04T10:35:27.699Z,15.64
2022-10-04T10:38:35.963Z,15.88
2022-10-04T10:41:20.315Z,16.09
2022-10-04T10:44:09.336Z,16.07
2022-10-04T10:47:32.498Z,15.88
2022-10-04T10:50:25.731Z,16.01
2022-10-04T10:53:30.208Z,16.20
2022-10-04T10:57:04.803Z,16.23
2022-10-04T11:00:09.665Z,16.20
2022-10-04T11:03:26.284Z,16.49
2022-10-04T11:07:00.399Z,16.73
2022-10-04T11:10:04.868Z,16.86
2022-10-04T11:12:46.932Z,16.82
2022-10-04T11:15:44.034Z,16.85
2022-10-04T11:18:29.843Z,17.10
2022-10-04T11:21:33.246Z,17.19
2022-10-04T11:24:24.937Z,17.22
2022-10-04T11:27:05.108Z,17.38
2022-10-04T11:29:55.452Z,17.51
2022-10-04T11:33:06.962Z,17.62
2022-10-04T11:35:55.805Z,17.73
2022-10-04T11:39:01.569Z,17.88
2022-10-04T11:41:48.461Z,17.87
2022-10-04T11:44:38.867Z,17.89
2022-10-04T11:47:24.461Z,18.05
2022-10-04T11:50:23.306Z,18.15
2022-10-04T11:53:35.228Z,18.21
2022-10-04T11:56:23.086Z,18.17
2022-10-04T11:59:02.814Z,18.16
2022-10-04T12:02:23.962Z,18.10
2022-10-04T12:05:08.570Z,18.02
2022-10-04T12:07:54.755Z,18.16
2022-10-04T12:10:29.105Z,18.39
2022-10-04T12:13:16.814Z,18.27
2022-10-04T12:16:29.850Z,18.24
2022-10-04T12:19:15.734Z,18.37
2022-10-04T12:22:13.245Z,18.45
2022-10-04T12:24:59.007Z,18.45
2022-10-04T12:28:11.574Z,18.33
2022-10-04T12:31:09.571Z,18.46
2022-10-04T12:37:16.095Z,18.56
2022-10-04T12:39:53.457Z,18.59
2022-10-04T12:42:35.590Z,18.74
2022-10-04T12:45:29.098Z,18.62
2022-10-04T12:48:22.111Z,18.62
2022-10-04T12:50:56.484Z,18.71
2022-10-04T12:53:48.434Z,18.81
2022-10-04T12:56:33.982Z,18.85
2022-10-04T12:59:22.511Z,18.81
2022-10-04T13:02:48.445Z,18.90
2022-10-04T13:05:23.875Z,18.96
2022-10-04T13:08:31.826Z,19.11
2022-10-04T13:11:11.214Z,18.99
2022-10-04T13:14:03.798Z,18.77
2022-10-04T13:19:50.669Z,19.07
2022-10-04T13:22:57.595Z,19.06
2022-10-04T13:25:38.403Z,18.98
2022-10-04T13:28:38.856Z,19.03
2022-10-04T13:31:12.351Z,19.13
2022-10-04T13:34:20.085Z,19.16
2022-10-04T13:37:40.823Z,19.27
2022-10-04T13:40:38.588Z,19.32
2022-10-04T13:43:21.893Z,19.15
2022-10-04T13:46:20.240Z,19.17
2022-10-04T13:49:32.072Z,19.21
2022-10-04T13:52:40.044Z,19.34
2022-10-04T13:55:34.540Z,19.44
2022-10-04T13:58:32.412Z,19.36
2022-10-04T14:01:41.571Z,19.49
2022-10-04T14:04:29.918Z,19.53
2022-10-04T14:07:42.100Z,19.38
2022-10-04T14:11:00.699Z,19.49
2022-10-04T14:13:49.204Z,19.60
2022-10-04T14:16:57.994Z,19.56
2022-10-04T14:19:34.047Z,19.55
2022-10-04T14:25:51.863Z,19.59
2022-10-04T14:28:44.309Z,19.58
2022-10-04T14:32:04.646Z,19.62
2022-10-04T14:34:55.430Z,19.44
2022-10-04T14:38:08.746Z,19.29
2022-10-04T14:40:59.027Z,19.25
2022-10-04T14:47:22.801Z,19.09
2022-10-04T14:50:34.359Z,18.95
2022-10-04T14:53:08.663Z,18.91
2022-10-04T14:56:06.577Z,18.90
2022-10-04T14:58:49.184Z,18.68
2022-10-04T15:01:21.276Z,18.68
2022-10-04T15:04:13.115Z,18.65
2022-10-04T15:06:49.147Z,18.64
2022-10-04T15:09:47.091Z,18.57
2022-10-04T15:13:08.828Z,18.57
2022-10-04T15:16:01.515Z,18.48
2022-10-04T15:18:47.172Z,18.45
2022-10-04T15:21:35.758Z,18.43
2022-10-04T15:24:32.608Z,18.46
2022-10-04T15:27:29.401Z,18.46
2022-10-04T15:30:10.686Z,18.34
2022-10-04T15:33:18.352Z,18.30
2022-10-04T15:36:16.813Z,18.19
2022-10-04T15:38:57.295Z,18.30
2022-10-04T15:42:12.123Z,18.14
2022-10-04T15:44:57.541Z,18.00
2022-10-04T15:47:31.343Z,18.03
2022-10-04T15:50:21.610Z,17.95
2022-10-04T15:53:23.687Z,17.87
2022-10-04T15:56:00.170Z,17.85
2022-10-04T15:58:56.251Z,17.78
2022-10-04T16:01:55.258Z,17.67
2022-10-04T16:04:35.249Z,17.68
2022-10-04T16:07:07.759Z,17.54
2022-10-04T16:10:19.206Z,17.51
2022-10-04T16:13:24.973Z,17.52
2022-10-04T16:16:18.454Z,17.46
2022-10-04T16:19:10.054Z,17.32
2022-10-04T16:25:25.399Z,17.22
2022-10-04T16:28:08.369Z,17.12
2022-10-04T16:31:09.560Z,17.08
2022-10-04T16:33:55.583Z,17.01
2022-10-04T16:36:27.100Z,16.82
2022-10-04T16:39:15.584Z,16.76
2022-10-04T16:41:58.330Z,16.73
2022-10-04T16:44:49.212Z,16.67
2022-10-04T16:47:39.737Z,16.40
2022-10-04T16:50:10.837Z,16.33
2022-10-04T16:52:50.475Z,16.26
2022-10-04T16:56:06.512Z,16.24
2022-10-04T16:58:43.249Z,16.17
2022-10-04T17:01:35.958Z,16.02
2022-10-04T17:04:35.598Z,15.97
2022-10-04T17:07:23.811Z,15.94
2022-10-04T17:10:21.497Z,15.92
2022-10-04T17:13:27.123Z,15.75
2022-10-04T17:16:33.642Z,15.64
2022-10-04T17:19:38.072Z,15.45
2022-10-04T17:22:21.945Z,15.38
2022-10-04T17:25:15.834Z,15.32
2022-10-04T17:27:53.568Z,15.18
2022-10-04T17:30:22.195Z,15.11
2022-10-04T17:33:12.864Z,15.06
2022-10-04T17:35:58.844Z,14.92
2022-10-04T17:38:51.876Z,14.68
2022-10-04T17:41:51.582Z,14.78
2022-10-04T17:44:45.583Z,14.68
2022-10-04T17:48:03.841Z,14.55
2022-10-04T17:51:00.534Z,14.45
2022-10-04T17:53:47.453Z,14.39
2022-10-04T17:56:25.728Z,14.22
2022-10-04T17:58:56.888Z,14.21
2022-10-04T18:01:51.101Z,14.13
2022-10-04T18:04:30.635Z,14.01
2022-10-04T18:07:02.342Z,13.87
2022-10-04T18:09:35.953Z,13.84
2022-10-04T18:12:13.218Z,13.78
2022-10-04T18:14:52.482Z,13.67
2022-10-04T18:17:28.557Z,13.56
2022-10-04T18:20:26.352Z,13.50
2022-10-04T18:23:03.406Z,13.52
2022-10-04T18:25:32.247Z,13.25
2022-10-04T18:28:11.696Z,13.08
2022-10-04T18:30:59.421Z,13.19
2022-10-04T18:33:56.358Z,13.22
2022-10-04T18:36:29.814Z,13.18
2022-10-04T18:39:24.614Z,13.06
2022-10-04T18:42:15.364Z,13.05
2022-10-04T18:44:47.153Z,12.92
2022-10-04T18:47:21.409Z,12.94
2022-10-04T18:49:51.297Z,12.95
2022-10-04T18:52:34.289Z,12.90
2022-10-04T18:55:49.370Z,12.95
2022-10-04T18:59:20.502Z,12.80
2022-10-04T19:02:16.516Z,12.71
2022-10-04T19:04:59.105Z,12.64
2022-10-04T19:07:34.891Z,12.71
2022-10-04T19:10:14.289Z,12.63
2022-10-04T19:12:48.403Z,12.61
2022-10-04T19:15:56.898Z,12.60
2022-10-04T19:18:54.350Z,12.62
2022-10-04T19:21:27.212Z,12.65
2022-10-04T19:24:37.655Z,12.57
2022-10-04T19:27:06.633Z,12.33
2022-10-04T19:30:09.914Z,12.26
2022-10-04T19:33:19.482Z,12.31
2022-10-04T19:36:01.653Z,12.20
2022-10-04T19:38:34.499Z,12.10
2022-10-04T19:41:19.880Z,12.15
2022-10-04T19:43:56.077Z,12.02
2022-10-04T19:46:56.301Z,12.02
2022-10-04T19:53:00.646Z,11.96
2022-10-04T19:55:49.590Z,11.88
2022-10-04T19:58:41.573Z,11.95
2022-10-04T20:01:13.028Z,11.88
2022-10-04T20:03:40.368Z,11.90
2022-10-04T20:06:07.836Z,11.84
2022-10-04T20:09:00.760Z,11.77
2022-10-04T20:11:48.716Z,11.72
2022-10-04T20:14:35.768Z,11.67
2022-10-04T20:17:04.389Z,11.53
2022-10-04T20:19:41.299Z,11.56
2022-10-04T20:22:26.544Z,11.49
2022-10-04T20:24:53.439Z,11.39
2022-10-04T20:27:46.395Z,11.32
2022-10-04T20:30:14.678Z,11.40
2022-10-04T20:32:41.430Z,11.51
2022-10-04T20:35:15.071Z,11.29
2022-10-04T20:38:30.558Z,11.31
2022-10-04T20:40:51.998Z,11.05
2022-10-04T20:43:27.862Z,11.12
2022-10-04T20:45:55.372Z,11.17
2022-10-04T20:48:23.697Z,11.18
2022-10-04T20:50:50.889Z,11.15
2022-10-04T20:53:36.185Z,11.02
2022-10-04T20:56:12.003Z,11.03
2022-10-04T20:58:40.577Z,10.97
2022-10-04T21:01:42.620Z,10.96
2022-10-04T21:04:47.046Z,10.85
2022-10-04T21:07:25.320Z,10.73
2022-10-04T21:09:53.480Z,10.59
2022-10-04T21:12:38.673Z,10.84
2022-10-04T21:15:25.965Z,10.65
2022-10-04T21:18:00.182Z,10.61
2022-10-04T21:20:42.952Z,10.62
2022-10-04T21:23:30.153Z,10.52
2022-10-04T21:26:23.678Z,10.58
2022-10-04T21:28:57.474Z,10.64
2022-10-04T21:31:24.860Z,10.52
2022-10-04T21:33:51.587Z,10.46
2022-10-04T21:36:18.346Z,10.46
2022-10-04T21:38:45.326Z,10.52
2022-10-04T21:41:12.060Z,10.36
2022-10-04T21:43:39.008Z,10.37
2022-10-04T21:46:06.027Z,10.41
2022-10-04T21:48:32.764Z,10.23
2022-10-04T21:50:59.617Z,10.22
2022-10-04T21:53:26.393Z,10.25
2022-10-04T21:55:53.218Z,10.11
2022-10-04T21:58:19.897Z,10.12
2022-10-04T22:00:46.661Z,10.14
2022-10-04T22:03:13.459Z,10.16
2022-10-04T22:05:40.411Z,10.23
2022-10-04T22:08:07.162Z,10.14
2022-10-04T22:10:34.070Z,10.18
2022-10-04T22:13:01.063Z,10.20
2022-10-04T22:15:28.854Z,10.16
2022-10-04T22:17:55.826Z,10.05
2022-10-04T22:20:22.992Z,9.98
2022-10-04T22:22:49.645Z,9.83
2022-10-04T22:25:20.814Z,9.92
2022-10-04T22:27:48.184Z,9.91
2022-10-04T22:30:30.091Z,9.99
2022-10-04T22:32:58.855Z,10.00
2022-10-04T22:35:25.877Z,9.78
2022-10-04T22:37:52.842Z,9.75
2022-10-04T22:40:24.520Z,9.89
2022-10-04T22:43:01.071Z,9.81
2022-10-04T22:45:30.104Z,9.96
2022-10-04T22:47:59.889Z,9.95
2022-10-04T22:50:37.046Z,9.83
2022-10-04T22:53:21.740Z,9.82
2022-10-04T22:55:49.779Z,9.74
2022-10-04T22:58:17.229Z,9.66
2022-10-04T23:00:45.062Z,9.67
2022-10-04T23:03:42.308Z,9.61
2022-10-04T23:06:14.316Z,9.54
2022-10-04T23:08:44.970Z,9.53
2022-10-04T23:11:11.813Z,9.52
2022-10-04T23:13:38.819Z,9.45
2022-10-04T23:16:18.587Z,9.50
2022-10-04T23:18:45.433Z,9.29
2022-10-04T23:21:24.074Z,9.50
2022-10-04T23:23:53.064Z,9.36
2022-10-04T23:26:25.771Z,9.36
2022-10-04T23:28:52.901Z,9.35
2022-10-04T23:31:23.702Z,9.43
2022-10-04T23:33:55.892Z,9.52
2022-10-04T23:36:23.325Z,9.41
2022-10-04T23:38:54.477Z,9.35
2022-10-04T23:41:21.259Z,9.31
2022-10-04T23:43:49.209Z,9.32
2022-10-04T23:46:19.037Z,9.23
2022-10-04T23:48:46.880Z,9.32
2022-10-04T23:51:17.453Z,9.18
2022-10-04T23:53:45.350Z,9.18
2022-10-04T23:56:32.670Z,9.33
2022-10-04T23:58:59.467Z,9.22
